Otis, Louisiana
Current Conditions -  °F | °C
As of 7:25 PM on Thursday 18 Dec 2014 (Local Time) from KAEX Reporting Station
Overcast Overcast  
Wind Chill: 52°   Ceiling: 1700
Heat Index: 52°   Visibility: 9mi
Dew Point: 50°   Wind: 0mph
Humidity: 93%   Direction: NA
Pressure: 30.13"   Gusts: NA
Location:  31.22°N, 92.73°W
Report Text: KAEX 190125Z 00000KT 9SM SCT007 OVC017 11/10 A3013 RMK AO2 T01110100
Loading
Personal Weather Stations






























Interactive Weather Map New forecast layout! Learn more

10-Day Weather Forecast

Advertisements
Track Severe Weather on mobile